sensor_id;sensor_type;location;lat;lon;timestamp;temperature;humidity
19538;DHT22;9914;51.008;4.300;2023-03-01T00:01:11;1.40;99.90
19538;DHT22;9914;51.008;4.300;2023-03-01T00:03:37;1.40;99.90
19538;DHT22;9914;51.008;4.300;2023-03-01T00:06:03;1.40;99.90
19538;DHT22;9914;51.008;4.300;2023-03-01T00:08:29;1.50;99.90
19538;DHT22;9914;51.008;4.300;2023-03-01T00:11:09;1.70;99.90
19538;DHT22;9914;51.008;4.300;2023-03-01T00:13:35;1.50;99.90
19538;DHT22;9914;51.008;4.300;2023-03-01T00:16:11;1.50;99.90
19538;DHT22;9914;51.008;4.300;2023-03-01T00:18:37;1.50;99.90
19538;DHT22;9914;51.008;4.300;2023-03-01T00:21:03;1.40;99.90
19538;DHT22;9914;51.008;4.300;2023-03-01T00:23:29;1.30;99.90
19538;DHT22;9914;51.008;4.300;2023-03-01T00:25:55;1.20;99.90
19538;DHT22;9914;51.008;4.300;2023-03-01T00:28:20;1.40;99.90
19538;DHT22;9914;51.008;4.300;2023-03-01T00:30:46;1.20;99.90
19538;DHT22;9914;51.008;4.300;2023-03-01T00:33:12;1.20;99.90
19538;DHT22;9914;51.008;4.300;2023-03-01T00:35:37;1.30;99.90
19538;DHT22;9914;51.008;4.300;2023-03-01T00:38:04;1.40;99.90
19538;DHT22;9914;51.008;4.300;2023-03-01T00:40:32;1.30;99.90
19538;DHT22;9914;51.008;4.300;2023-03-01T00:42:59;1.10;99.90
19538;DHT22;9914;51.008;4.300;2023-03-01T00:45:25;1.20;99.90
19538;DHT22;9914;51.008;4.300;2023-03-01T00:47:51;1.10;99.90
19538;DHT22;9914;51.008;4.300;2023-03-01T00:50:18;1.10;99.90
19538;DHT22;9914;51.008;4.300;2023-03-01T00:52:44;0.90;99.90
19538;DHT22;9914;51.008;4.300;2023-03-01T00:55:10;0.90;99.90
19538;DHT22;9914;51.008;4.300;2023-03-01T00:57:37;0.90;99.90
19538;DHT22;9914;51.008;4.300;2023-03-01T01:00:05;1.00;99.90
19538;DHT22;9914;51.008;4.300;2023-03-01T01:02:32;0.90;99.90
19538;DHT22;9914;51.008;4.300;2023-03-01T01:04:59;1.10;99.90
19538;DHT22;9914;51.008;4.300;2023-03-01T01:07:24;1.10;99.90
19538;DHT22;9914;51.008;4.300;2023-03-01T01:09:50;1.00;99.90
19538;DHT22;9914;51.008;4.300;2023-03-01T01:12:16;0.90;99.90
19538;DHT22;9914;51.008;4.300;2023-03-01T01:14:41;0.80;99.90
19538;DHT22;9914;51.008;4.300;2023-03-01T01:17:07;1.00;99.90
19538;DHT22;9914;51.008;4.300;2023-03-01T01:19:32;0.90;99.90
19538;DHT22;9914;51.008;4.300;2023-03-01T01:21:58;1.10;99.90
19538;DHT22;9914;51.008;4.300;2023-03-01T01:24:24;1.20;99.90
19538;DHT22;9914;51.008;4.300;2023-03-01T01:26:49;1.30;99.90
19538;DHT22;9914;51.008;4.300;2023-03-01T01:29:15;1.30;99.90
19538;DHT22;9914;51.008;4.300;2023-03-01T01:31:42;1.00;99.90
19538;DHT22;9914;51.008;4.300;2023-03-01T01:34:13;0.80;99.90
19538;DHT22;9914;51.008;4.300;2023-03-01T01:36:39;0.90;99.90
19538;DHT22;9914;51.008;4.300;2023-03-01T01:39:05;0.90;99.90
19538;DHT22;9914;51.008;4.300;2023-03-01T01:41:31;0.90;99.90
19538;DHT22;9914;51.008;4.300;2023-03-01T01:46:40;0.80;99.90
19538;DHT22;9914;51.008;4.300;2023-03-01T01:51:46;0.90;99.90
19538;DHT22;9914;51.008;4.300;2023-03-01T01:54:35;0.70;99.90
19538;DHT22;9914;51.008;4.300;2023-03-01T01:57:10;0.80;99.90
19538;DHT22;9914;51.008;4.300;2023-03-01T01:59:38;0.90;99.90
19538;DHT22;9914;51.008;4.300;2023-03-01T02:02:04;1.00;99.90
19538;DHT22;9914;51.008;4.300;2023-03-01T02:04:31;1.00;99.90
19538;DHT22;9914;51.008;4.300;2023-03-01T02:07:21;0.90;99.90
19538;DHT22;9914;51.008;4.300;2023-03-01T02:09:49;0.60;99.90
19538;DHT22;9914;51.008;4.300;2023-03-01T02:12:18;0.70;99.90
19538;DHT22;9914;51.008;4.300;2023-03-01T02:14:44;0.60;99.90
19538;DHT22;9914;51.008;4.300;2023-03-01T02:17:11;0.50;99.90
19538;DHT22;9914;51.008;4.300;2023-03-01T02:19:58;0.50;99.90
19538;DHT22;9914;51.008;4.300;2023-03-01T02:22:33;0.60;99.90
19538;DHT22;9914;51.008;4.300;2023-03-01T02:25:27;0.60;99.90
19538;DHT22;9914;51.008;4.300;2023-03-01T02:30:20;0.50;99.90
19538;DHT22;9914;51.008;4.300;2023-03-01T02:32:47;0.40;99.90
19538;DHT22;9914;51.008;4.300;2023-03-01T02:35:15;0.30;99.90
19538;DHT22;9914;51.008;4.300;2023-03-01T02:37:42;0.30;99.90
19538;DHT22;9914;51.008;4.300;2023-03-01T02:40:11;0.40;99.90
19538;DHT22;9914;51.008;4.300;2023-03-01T02:42:45;0.40;99.90
19538;DHT22;9914;51.008;4.300;2023-03-01T02:45:12;0.40;99.90
19538;DHT22;9914;51.008;4.300;2023-03-01T02:47:38;0.30;99.90
19538;DHT22;9914;51.008;4.300;2023-03-01T02:53:01;0.30;99.90
19538;DHT22;9914;51.008;4.300;2023-03-01T02:55:30;0.20;99.90
19538;DHT22;9914;51.008;4.300;2023-03-01T02:57:56;0.20;99.90
19538;DHT22;9914;51.008;4.300;2023-03-01T03:00:39;0.20;99.90
19538;DHT22;9914;51.008;4.300;2023-03-01T03:03:13;0.10;99.90
19538;DHT22;9914;51.008;4.300;2023-03-01T03:05:39;0.00;99.90
19538;DHT22;9914;51.008;4.300;2023-03-01T03:08:05;0.00;99.90
19538;DHT22;9914;51.008;4.300;2023-03-01T03:10:35;0.10;99.90
19538;DHT22;9914;51.008;4.300;2023-03-01T03:13:04;0.00;99.90
19538;DHT22;9914;51.008;4.300;2023-03-01T03:15:30;0.40;99.90
19538;DHT22;9914;51.008;4.300;2023-03-01T03:17:58;0.20;99.90
19538;DHT22;9914;51.008;4.300;2023-03-01T03:20:26;0.10;99.90
19538;DHT22;9914;51.008;4.300;2023-03-01T03:22:54;0.10;99.90
19538;DHT22;9914;51.008;4.300;2023-03-01T03:25:21;0.00;99.90
19538;DHT22;9914;51.008;4.300;2023-03-01T03:27:48;0.00;99.90
19538;DHT22;9914;51.008;4.300;2023-03-01T03:30:17;0.00;99.90
19538;DHT22;9914;51.008;4.300;2023-03-01T03:32:46;-0.10;99.90
19538;DHT22;9914;51.008;4.300;2023-03-01T03:35:22;-0.20;99.90
19538;DHT22;9914;51.008;4.300;2023-03-01T03:37:48;-0.10;99.90
19538;DHT22;9914;51.008;4.300;2023-03-01T03:40:32;0.10;99.90
19538;DHT22;9914;51.008;4.300;2023-03-01T03:42:58;0.30;99.90
19538;DHT22;9914;51.008;4.300;2023-03-01T03:45:24;0.10;99.90
19538;DHT22;9914;51.008;4.300;2023-03-01T03:47:49;0.50;99.90
19538;DHT22;9914;51.008;4.300;2023-03-01T03:50:16;0.50;99.90
19538;DHT22;9914;51.008;4.300;2023-03-01T03:52:42;0.40;99.90
19538;DHT22;9914;51.008;4.300;2023-03-01T03:55:10;0.20;99.90
19538;DHT22;9914;51.008;4.300;2023-03-01T03:57:42;0.40;99.90
19538;DHT22;9914;51.008;4.300;2023-03-01T04:00:11;0.50;99.90
19538;DHT22;9914;51.008;4.300;2023-03-01T04:02:40;0.50;99.90
19538;DHT22;9914;51.008;4.300;2023-03-01T04:05:07;0.60;99.90
19538;DHT22;9914;51.008;4.300;2023-03-01T04:07:34;0.60;99.90
19538;DHT22;9914;51.008;4.300;2023-03-01T04:10:00;0.50;99.90
19538;DHT22;9914;51.008;4.300;2023-03-01T04:12:26;0.40;99.90
19538;DHT22;9914;51.008;4.300;2023-03-01T04:14:51;0.30;99.90
19538;DHT22;9914;51.008;4.300;2023-03-01T04:17:17;0.50;99.90
19538;DHT22;9914;51.008;4.300;2023-03-01T04:19:44;0.40;99.90
19538;DHT22;9914;51.008;4.300;2023-03-01T04:22:14;0.40;99.90
19538;DHT22;9914;51.008;4.300;2023-03-01T04:24:43;0.30;99.90
19538;DHT22;9914;51.008;4.300;2023-03-01T04:27:09;0.40;99.90
19538;DHT22;9914;51.008;4.300;2023-03-01T04:29:35;0.40;99.90
19538;DHT22;9914;51.008;4.300;2023-03-01T04:32:01;0.60;99.90
19538;DHT22;9914;51.008;4.300;2023-03-01T04:34:26;0.30;99.90
19538;DHT22;9914;51.008;4.300;2023-03-01T04:36:52;0.30;99.90
19538;DHT22;9914;51.008;4.300;2023-03-01T04:39:18;0.60;99.90
19538;DHT22;9914;51.008;4.300;2023-03-01T04:41:43;0.70;99.90
19538;DHT22;9914;51.008;4.300;2023-03-01T04:44:09;0.50;99.90
19538;DHT22;9914;51.008;4.300;2023-03-01T04:46:35;0.30;99.90
19538;DHT22;9914;51.008;4.300;2023-03-01T04:49:02;0.10;99.90
19538;DHT22;9914;51.008;4.300;2023-03-01T04:51:28;0.20;99.90
19538;DHT22;9914;51.008;4.300;2023-03-01T04:53:54;0.10;99.90
19538;DHT22;9914;51.008;4.300;2023-03-01T04:56:19;0.40;99.90
19538;DHT22;9914;51.008;4.300;2023-03-01T04:58:46;0.30;99.90
19538;DHT22;9914;51.008;4.300;2023-03-01T05:01:14;0.30;99.90
19538;DHT22;9914;51.008;4.300;2023-03-01T05:03:48;0.20;99.90
19538;DHT22;9914;51.008;4.300;2023-03-01T05:06:15;0.10;99.90
19538;DHT22;9914;51.008;4.300;2023-03-01T05:08:43;0.10;99.90
19538;DHT22;9914;51.008;4.300;2023-03-01T05:11:09;0.00;99.90
19538;DHT22;9914;51.008;4.300;2023-03-01T05:13:39;0.00;99.90
19538;DHT22;9914;51.008;4.300;2023-03-01T05:16:06;0.00;99.90
19538;DHT22;9914;51.008;4.300;2023-03-01T05:18:33;0.00;99.90
19538;DHT22;9914;51.008;4.300;2023-03-01T05:21:07;-0.10;99.90
19538;DHT22;9914;51.008;4.300;2023-03-01T05:23:34;0.10;99.90
19538;DHT22;9914;51.008;4.300;2023-03-01T05:26:01;0.30;99.90
19538;DHT22;9914;51.008;4.300;2023-03-01T05:28:27;0.20;99.90
19538;DHT22;9914;51.008;4.300;2023-03-01T05:30:56;0.10;99.90
19538;DHT22;9914;51.008;4.300;2023-03-01T05:33:23;0.20;99.90
19538;DHT22;9914;51.008;4.300;2023-03-01T05:35:50;-0.10;99.90
19538;DHT22;9914;51.008;4.300;2023-03-01T05:38:17;-0.10;99.90
19538;DHT22;9914;51.008;4.300;2023-03-01T05:40:44;0.00;99.90
19538;DHT22;9914;51.008;4.300;2023-03-01T05:43:11;0.00;99.90
19538;DHT22;9914;51.008;4.300;2023-03-01T05:45:37;-0.10;99.90
19538;DHT22;9914;51.008;4.300;2023-03-01T05:48:04;-0.10;99.90
19538;DHT22;9914;51.008;4.300;2023-03-01T05:50:34;0.10;99.90
19538;DHT22;9914;51.008;4.300;2023-03-01T05:53:09;0.20;99.90
19538;DHT22;9914;51.008;4.300;2023-03-01T05:55:36;0.20;99.90
19538;DHT22;9914;51.008;4.300;2023-03-01T05:58:04;0.00;99.90
19538;DHT22;9914;51.008;4.300;2023-03-01T06:00:30;-0.10;99.90
19538;DHT22;9914;51.008;4.300;2023-03-01T06:02:58;-0.10;99.90
19538;DHT22;9914;51.008;4.300;2023-03-01T06:05:24;-0.20;99.90
19538;DHT22;9914;51.008;4.300;2023-03-01T06:07:50;-0.40;99.90
19538;DHT22;9914;51.008;4.300;2023-03-01T06:10:17;-0.50;99.90
19538;DHT22;9914;51.008;4.300;2023-03-01T06:12:43;-0.50;99.90
19538;DHT22;9914;51.008;4.300;2023-03-01T06:15:11;-0.60;99.90
19538;DHT22;9914;51.008;4.300;2023-03-01T06:17:38;-0.60;99.90
19538;DHT22;9914;51.008;4.300;2023-03-01T06:20:08;-0.60;99.90
19538;DHT22;9914;51.008;4.300;2023-03-01T06:22:34;-0.60;99.90
19538;DHT22;9914;51.008;4.300;2023-03-01T06:25:00;-0.60;99.90
19538;DHT22;9914;51.008;4.300;2023-03-01T06:27:25;-0.60;99.90
19538;DHT22;9914;51.008;4.300;2023-03-01T06:29:51;-0.60;99.90
19538;DHT22;9914;51.008;4.300;2023-03-01T06:32:16;-0.50;99.90
19538;DHT22;9914;51.008;4.300;2023-03-01T06:34:42;-0.50;99.90
19538;DHT22;9914;51.008;4.300;2023-03-01T06:37:08;-0.50;99.90
19538;DHT22;9914;51.008;4.300;2023-03-01T06:39:33;-0.50;99.90
19538;DHT22;9914;51.008;4.300;2023-03-01T06:41:59;-0.50;99.90
19538;DHT22;9914;51.008;4.300;2023-03-01T06:44:25;-0.30;99.90
19538;DHT22;9914;51.008;4.300;2023-03-01T06:46:51;-0.40;99.90
19538;DHT22;9914;51.008;4.300;2023-03-01T06:49:17;-0.40;99.90
19538;DHT22;9914;51.008;4.300;2023-03-01T06:51:43;-0.30;99.90
19538;DHT22;9914;51.008;4.300;2023-03-01T06:54:09;-0.30;99.90
19538;DHT22;9914;51.008;4.300;2023-03-01T06:56:35;-0.20;99.90
19538;DHT22;9914;51.008;4.300;2023-03-01T06:59:01;-0.30;99.90
19538;DHT22;9914;51.008;4.300;2023-03-01T07:01:28;-0.20;99.90
19538;DHT22;9914;51.008;4.300;2023-03-01T07:03:55;-0.20;99.90
19538;DHT22;9914;51.008;4.300;2023-03-01T07:06:21;-0.20;99.90
19538;DHT22;9914;51.008;4.300;2023-03-01T07:08:47;-0.20;99.90
19538;DHT22;9914;51.008;4.300;2023-03-01T07:11:13;0.00;99.90
19538;DHT22;9914;51.008;4.300;2023-03-01T07:13:39;0.00;99.90
19538;DHT22;9914;51.008;4.300;2023-03-01T07:16:05;-0.10;99.90
19538;DHT22;9914;51.008;4.300;2023-03-01T07:18:30;0.00;99.90
19538;DHT22;9914;51.008;4.300;2023-03-01T07:20:56;0.20;99.90
19538;DHT22;9914;51.008;4.300;2023-03-01T07:23:21;0.20;99.90
19538;DHT22;9914;51.008;4.300;2023-03-01T07:25:54;0.30;99.90
19538;DHT22;9914;51.008;4.300;2023-03-01T07:28:20;0.20;99.90
19538;DHT22;9914;51.008;4.300;2023-03-01T07:30:45;0.30;99.90
19538;DHT22;9914;51.008;4.300;2023-03-01T07:33:11;0.30;99.90
19538;DHT22;9914;51.008;4.300;2023-03-01T07:35:37;0.40;99.90
19538;DHT22;9914;51.008;4.300;2023-03-01T07:38:02;0.50;99.90
19538;DHT22;9914;51.008;4.300;2023-03-01T07:40:28;0.50;99.90
19538;DHT22;9914;51.008;4.300;2023-03-01T07:42:57;0.40;99.90
19538;DHT22;9914;51.008;4.300;2023-03-01T07:45:24;0.40;99.90
19538;DHT22;9914;51.008;4.300;2023-03-01T07:47:51;0.30;99.90
19538;DHT22;9914;51.008;4.300;2023-03-01T07:50:17;0.40;99.90
19538;DHT22;9914;51.008;4.300;2023-03-01T07:52:45;0.50;99.90
19538;DHT22;9914;51.008;4.300;2023-03-01T07:55:11;0.50;99.90
19538;DHT22;9914;51.008;4.300;2023-03-01T07:57:37;0.50;99.90
19538;DHT22;9914;51.008;4.300;2023-03-01T08:00:03;0.60;99.90
19538;DHT22;9914;51.008;4.300;2023-03-01T08:02:29;0.90;99.90
19538;DHT22;9914;51.008;4.300;2023-03-01T08:04:54;0.90;99.90
19538;DHT22;9914;51.008;4.300;2023-03-01T08:07:20;1.00;99.90
19538;DHT22;9914;51.008;4.300;2023-03-01T08:09:45;1.00;99.90
19538;DHT22;9914;51.008;4.300;2023-03-01T08:12:11;1.10;99.90
19538;DHT22;9914;51.008;4.300;2023-03-01T08:14:36;1.20;99.90
19538;DHT22;9914;51.008;4.300;2023-03-01T08:17:02;1.30;99.90
19538;DHT22;9914;51.008;4.300;2023-03-01T08:19:28;1.20;99.90
19538;DHT22;9914;51.008;4.300;2023-03-01T08:21:54;1.40;99.90
19538;DHT22;9914;51.008;4.300;2023-03-01T08:24:23;1.50;99.90
19538;DHT22;9914;51.008;4.300;2023-03-01T08:26:49;1.50;99.90
19538;DHT22;9914;51.008;4.300;2023-03-01T08:29:14;1.40;99.90
19538;DHT22;9914;51.008;4.300;2023-03-01T08:31:40;1.40;99.90
19538;DHT22;9914;51.008;4.300;2023-03-01T08:34:09;1.50;99.90
19538;DHT22;9914;51.008;4.300;2023-03-01T08:36:40;1.60;99.90
19538;DHT22;9914;51.008;4.300;2023-03-01T08:39:08;1.90;99.90
19538;DHT22;9914;51.008;4.300;2023-03-01T08:41:34;1.90;99.90
19538;DHT22;9914;51.008;4.300;2023-03-01T08:43:59;1.90;99.90
19538;DHT22;9914;51.008;4.300;2023-03-01T08:46:26;2.10;99.90
19538;DHT22;9914;51.008;4.300;2023-03-01T08:48:52;2.30;99.90
19538;DHT22;9914;51.008;4.300;2023-03-01T08:51:19;2.40;99.90
19538;DHT22;9914;51.008;4.300;2023-03-01T08:53:46;2.50;99.90
19538;DHT22;9914;51.008;4.300;2023-03-01T08:56:12;2.30;99.90
19538;DHT22;9914;51.008;4.300;2023-03-01T08:58:38;2.30;99.90
19538;DHT22;9914;51.008;4.300;2023-03-01T09:01:08;2.50;99.90
19538;DHT22;9914;51.008;4.300;2023-03-01T09:03:34;2.80;99.90
19538;DHT22;9914;51.008;4.300;2023-03-01T09:06:01;2.80;99.90
19538;DHT22;9914;51.008;4.300;2023-03-01T09:08:27;2.90;99.90
19538;DHT22;9914;51.008;4.300;2023-03-01T09:10:52;3.10;99.90
19538;DHT22;9914;51.008;4.300;2023-03-01T09:13:18;3.00;99.90
19538;DHT22;9914;51.008;4.300;2023-03-01T09:15:43;3.00;99.90
19538;DHT22;9914;51.008;4.300;2023-03-01T09:18:09;3.10;99.90
19538;DHT22;9914;51.008;4.300;2023-03-01T09:20:34;3.10;99.90
19538;DHT22;9914;51.008;4.300;2023-03-01T09:23:00;3.40;99.90
19538;DHT22;9914;51.008;4.300;2023-03-01T09:25:26;3.50;99.90
19538;DHT22;9914;51.008;4.300;2023-03-01T09:27:52;3.50;99.90
19538;DHT22;9914;51.008;4.300;2023-03-01T09:30:18;3.70;99.90
19538;DHT22;9914;51.008;4.300;2023-03-01T09:32:44;3.70;99.90
19538;DHT22;9914;51.008;4.300;2023-03-01T09:35:11;3.50;99.90
19538;DHT22;9914;51.008;4.300;2023-03-01T09:37:37;3.40;99.90
19538;DHT22;9914;51.008;4.300;2023-03-01T09:40:05;3.50;99.90
19538;DHT22;9914;51.008;4.300;2023-03-01T09:42:34;3.60;99.90
19538;DHT22;9914;51.008;4.300;2023-03-01T09:45:04;3.80;99.90
19538;DHT22;9914;51.008;4.300;2023-03-01T09:47:33;3.70;99.90
19538;DHT22;9914;51.008;4.300;2023-03-01T09:50:15;3.70;99.90
19538;DHT22;9914;51.008;4.300;2023-03-01T09:55:13;3.80;99.90
19538;DHT22;9914;51.008;4.300;2023-03-01T09:57:53;3.90;99.90
19538;DHT22;9914;51.008;4.300;2023-03-01T10:10:57;4.30;99.90
19538;DHT22;9914;51.008;4.300;2023-03-01T10:16:45;4.20;99.90
19538;DHT22;9914;51.008;4.300;2023-03-01T10:19:16;4.40;99.90
19538;DHT22;9914;51.008;4.300;2023-03-01T10:21:46;4.50;99.90
19538;DHT22;9914;51.008;4.300;2023-03-01T10:24:16;4.40;99.90
19538;DHT22;9914;51.008;4.300;2023-03-01T10:26:55;4.40;99.90
19538;DHT22;9914;51.008;4.300;2023-03-01T10:29:31;4.50;99.90
19538;DHT22;9914;51.008;4.300;2023-03-01T10:32:00;4.90;99.90
19538;DHT22;9914;51.008;4.300;2023-03-01T10:34:30;5.10;99.90
19538;DHT22;9914;51.008;4.300;2023-03-01T10:37:17;5.10;99.90
19538;DHT22;9914;51.008;4.300;2023-03-01T10:40:07;5.20;99.90
19538;DHT22;9914;51.008;4.300;2023-03-01T10:42:39;5.10;99.90
19538;DHT22;9914;51.008;4.300;2023-03-01T10:45:17;5.10;99.90
19538;DHT22;9914;51.008;4.300;2023-03-01T10:48:04;4.90;99.90
19538;DHT22;9914;51.008;4.300;2023-03-01T10:50:31;5.10;99.90
19538;DHT22;9914;51.008;4.300;2023-03-01T10:53:01;5.50;99.90
19538;DHT22;9914;51.008;4.300;2023-03-01T10:55:38;5.60;99.90
19538;DHT22;9914;51.008;4.300;2023-03-01T10:58:16;5.60;99.90
19538;DHT22;9914;51.008;4.300;2023-03-01T11:03:17;5.70;99.90
19538;DHT22;9914;51.008;4.300;2023-03-01T11:08:38;5.70;99.90
19538;DHT22;9914;51.008;4.300;2023-03-01T11:11:23;5.80;99.90
19538;DHT22;9914;51.008;4.300;2023-03-01T11:13:56;5.90;99.90
19538;DHT22;9914;51.008;4.300;2023-03-01T11:16:44;5.90;99.90
19538;DHT22;9914;51.008;4.300;2023-03-01T11:21:59;6.30;99.90
19538;DHT22;9914;51.008;4.300;2023-03-01T11:26:56;6.30;99.90
19538;DHT22;9914;51.008;4.300;2023-03-01T11:29:38;6.10;99.90
19538;DHT22;9914;51.008;4.300;2023-03-01T11:32:09;6.30;99.90
19538;DHT22;9914;51.008;4.300;2023-03-01T11:37:29;6.50;99.90
19538;DHT22;9914;51.008;4.300;2023-03-01T11:40:20;6.20;99.90
19538;DHT22;9914;51.008;4.300;2023-03-01T11:45:24;6.60;99.90
19538;DHT22;9914;51.008;4.300;2023-03-01T11:48:44;6.80;99.90
19538;DHT22;9914;51.008;4.300;2023-03-01T11:50:50;7.10;99.90
19538;DHT22;9914;51.008;4.300;2023-03-01T11:56:34;7.00;99.90
19538;DHT22;9914;51.008;4.300;2023-03-01T12:05:02;6.90;99.90
19538;DHT22;9914;51.008;4.300;2023-03-01T12:10:27;7.20;99.90
19538;DHT22;9914;51.008;4.300;2023-03-01T12:18:35;7.50;99.90
19538;DHT22;9914;51.008;4.300;2023-03-01T12:26:34;7.30;99.90
19538;DHT22;9914;51.008;4.300;2023-03-01T12:35:01;7.30;99.90
19538;DHT22;9914;51.008;4.300;2023-03-01T12:45:48;7.00;99.90
19538;DHT22;9914;51.008;4.300;2023-03-01T12:50:54;7.50;99.90
19538;DHT22;9914;51.008;4.300;2023-03-01T12:53:26;7.60;99.90
19538;DHT22;9914;51.008;4.300;2023-03-01T12:56:18;7.70;99.90
19538;DHT22;9914;51.008;4.300;2023-03-01T13:01:41;7.30;99.90
19538;DHT22;9914;51.008;4.300;2023-03-01T13:06:47;7.20;99.90
19538;DHT22;9914;51.008;4.300;2023-03-01T13:09:46;7.40;99.90
19538;DHT22;9914;51.008;4.300;2023-03-01T13:15:34;7.80;99.90
19538;DHT22;9914;51.008;4.300;2023-03-01T13:30:58;7.50;99.90
19538;DHT22;9914;51.008;4.300;2023-03-01T13:35:53;8.20;99.90
19538;DHT22;9914;51.008;4.300;2023-03-01T13:41:09;7.90;99.90
19538;DHT22;9914;51.008;4.300;2023-03-01T13:43:37;8.10;99.90
19538;DHT22;9914;51.008;4.300;2023-03-01T13:46:29;7.90;99.90
19538;DHT22;9914;51.008;4.300;2023-03-01T13:48:56;7.90;99.90
19538;DHT22;9914;51.008;4.300;2023-03-01T13:51:27;7.70;99.90
19538;DHT22;9914;51.008;4.300;2023-03-01T13:53:54;7.70;99.90
19538;DHT22;9914;51.008;4.300;2023-03-01T13:56:36;7.70;99.90
19538;DHT22;9914;51.008;4.300;2023-03-01T13:59:20;7.90;99.90
19538;DHT22;9914;51.008;4.300;2023-03-01T14:01:55;8.00;99.90
19538;DHT22;9914;51.008;4.300;2023-03-01T14:04:24;7.90;99.90
19538;DHT22;9914;51.008;4.300;2023-03-01T14:06:51;8.00;99.90
19538;DHT22;9914;51.008;4.300;2023-03-01T14:09:18;8.00;99.90
19538;DHT22;9914;51.008;4.300;2023-03-01T14:17:00;8.10;99.90
19538;DHT22;9914;51.008;4.300;2023-03-01T14:19:30;8.20;99.90
19538;DHT22;9914;51.008;4.300;2023-03-01T14:22:22;8.30;99.90
19538;DHT22;9914;51.008;4.300;2023-03-01T14:24:56;8.20;99.90
19538;DHT22;9914;51.008;4.300;2023-03-01T14:27:30;8.10;99.90
19538;DHT22;9914;51.008;4.300;2023-03-01T14:30:01;7.90;99.90
19538;DHT22;9914;51.008;4.300;2023-03-01T14:32:28;7.90;99.90
19538;DHT22;9914;51.008;4.300;2023-03-01T14:34:55;8.00;99.90
19538;DHT22;9914;51.008;4.300;2023-03-01T14:37:28;8.20;99.90
19538;DHT22;9914;51.008;4.300;2023-03-01T14:39:55;8.10;99.90
19538;DHT22;9914;51.008;4.300;2023-03-01T14:42:22;8.10;99.90
19538;DHT22;9914;51.008;4.300;2023-03-01T14:44:51;8.30;99.90
19538;DHT22;9914;51.008;4.300;2023-03-01T14:47:29;8.10;99.90
19538;DHT22;9914;51.008;4.300;2023-03-01T14:50:07;8.00;99.90
19538;DHT22;9914;51.008;4.300;2023-03-01T14:52:38;8.10;99.90
19538;DHT22;9914;51.008;4.300;2023-03-01T14:58:03;7.90;99.90
19538;DHT22;9914;51.008;4.300;2023-03-01T15:00:32;7.70;99.90
19538;DHT22;9914;51.008;4.300;2023-03-01T15:03:11;7.70;99.90
19538;DHT22;9914;51.008;4.300;2023-03-01T15:05:40;7.70;99.90
19538;DHT22;9914;51.008;4.300;2023-03-01T15:08:07;7.60;99.90
19538;DHT22;9914;51.008;4.300;2023-03-01T15:10:37;7.70;99.90
19538;DHT22;9914;51.008;4.300;2023-03-01T15:13:21;7.70;99.90
19538;DHT22;9914;51.008;4.300;2023-03-01T15:15:49;7.90;99.90
19538;DHT22;9914;51.008;4.300;2023-03-01T15:18:28;7.90;99.90
19538;DHT22;9914;51.008;4.300;2023-03-01T15:20:56;7.90;99.90
19538;DHT22;9914;51.008;4.300;2023-03-01T15:23:30;7.80;99.90
19538;DHT22;9914;51.008;4.300;2023-03-01T15:25:57;7.80;99.90
19538;DHT22;9914;51.008;4.300;2023-03-01T15:28:33;8.00;99.90
19538;DHT22;9914;51.008;4.300;2023-03-01T15:31:12;8.10;99.90
19538;DHT22;9914;51.008;4.300;2023-03-01T15:33:42;8.00;99.90
19538;DHT22;9914;51.008;4.300;2023-03-01T15:36:44;8.10;99.90
19538;DHT22;9914;51.008;4.300;2023-03-01T15:41:58;7.80;99.90
19538;DHT22;9914;51.008;4.300;2023-03-01T15:44:32;7.90;99.90
19538;DHT22;9914;51.008;4.300;2023-03-01T15:46:59;7.90;99.90
19538;DHT22;9914;51.008;4.300;2023-03-01T15:49:43;7.80;99.90
19538;DHT22;9914;51.008;4.300;2023-03-01T15:52:22;7.60;99.90
19538;DHT22;9914;51.008;4.300;2023-03-01T15:54:55;7.80;99.90
19538;DHT22;9914;51.008;4.300;2023-03-01T15:57:21;7.80;99.90
19538;DHT22;9914;51.008;4.300;2023-03-01T15:59:46;8.20;99.90
19538;DHT22;9914;51.008;4.300;2023-03-01T16:02:12;8.80;99.90
19538;DHT22;9914;51.008;4.300;2023-03-01T16:04:39;8.80;99.90
19538;DHT22;9914;51.008;4.300;2023-03-01T16:07:05;8.70;99.90
19538;DHT22;9914;51.008;4.300;2023-03-01T16:09:31;8.20;99.90
19538;DHT22;9914;51.008;4.300;2023-03-01T16:11:57;8.10;99.90
19538;DHT22;9914;51.008;4.300;2023-03-01T16:14:23;8.50;99.90
19538;DHT22;9914;51.008;4.300;2023-03-01T16:16:49;9.20;99.90
19538;DHT22;9914;51.008;4.300;2023-03-01T16:19:15;9.40;99.90
19538;DHT22;9914;51.008;4.300;2023-03-01T16:21:41;9.60;99.90
19538;DHT22;9914;51.008;4.300;2023-03-01T16:24:09;9.60;99.90
19538;DHT22;9914;51.008;4.300;2023-03-01T16:26:36;9.90;99.90
19538;DHT22;9914;51.008;4.300;2023-03-01T16:29:02;10.10;99.90
19538;DHT22;9914;51.008;4.300;2023-03-01T16:31:28;10.20;99.90
19538;DHT22;9914;51.008;4.300;2023-03-01T16:33:58;9.90;99.90
19538;DHT22;9914;51.008;4.300;2023-03-01T16:36:25;9.80;99.90
19538;DHT22;9914;51.008;4.300;2023-03-01T16:38:52;10.20;99.90
19538;DHT22;9914;51.008;4.300;2023-03-01T16:41:19;10.30;99.90
19538;DHT22;9914;51.008;4.300;2023-03-01T16:43:46;9.80;99.90
19538;DHT22;9914;51.008;4.300;2023-03-01T16:46:17;9.80;99.90
19538;DHT22;9914;51.008;4.300;2023-03-01T16:48:43;10.20;99.90
19538;DHT22;9914;51.008;4.300;2023-03-01T16:51:08;10.10;99.90
19538;DHT22;9914;51.008;4.300;2023-03-01T16:53:35;9.90;99.90
19538;DHT22;9914;51.008;4.300;2023-03-01T16:56:02;10.00;99.90
19538;DHT22;9914;51.008;4.300;2023-03-01T16:58:28;9.70;99.90
19538;DHT22;9914;51.008;4.300;2023-03-01T17:00:55;9.60;99.90
19538;DHT22;9914;51.008;4.300;2023-03-01T17:03:22;9.10;99.90
19538;DHT22;9914;51.008;4.300;2023-03-01T17:05:48;8.80;99.90
19538;DHT22;9914;51.008;4.300;2023-03-01T17:08:13;8.50;99.90
19538;DHT22;9914;51.008;4.300;2023-03-01T17:10:39;8.20;99.90
19538;DHT22;9914;51.008;4.300;2023-03-01T17:13:04;7.80;99.90
19538;DHT22;9914;51.008;4.300;2023-03-01T17:15:30;7.50;99.90
19538;DHT22;9914;51.008;4.300;2023-03-01T17:17:55;7.20;99.90
19538;DHT22;9914;51.008;4.300;2023-03-01T17:20:21;7.00;99.90
19538;DHT22;9914;51.008;4.300;2023-03-01T17:22:47;6.70;99.90
19538;DHT22;9914;51.008;4.300;2023-03-01T17:25:12;6.60;99.90
19538;DHT22;9914;51.008;4.300;2023-03-01T17:27:39;6.50;99.90
19538;DHT22;9914;51.008;4.300;2023-03-01T17:30:06;6.50;99.90
19538;DHT22;9914;51.008;4.300;2023-03-01T17:32:32;6.40;99.90
19538;DHT22;9914;51.008;4.300;2023-03-01T17:34:58;6.40;99.90
19538;DHT22;9914;51.008;4.300;2023-03-01T17:37:23;6.20;99.90
19538;DHT22;9914;51.008;4.300;2023-03-01T17:39:49;6.20;99.90
19538;DHT22;9914;51.008;4.300;2023-03-01T17:42:15;6.00;99.90
19538;DHT22;9914;51.008;4.300;2023-03-01T17:44:40;5.90;99.90
19538;DHT22;9914;51.008;4.300;2023-03-01T17:47:06;5.80;99.90
19538;DHT22;9914;51.008;4.300;2023-03-01T17:49:32;5.70;99.90
19538;DHT22;9914;51.008;4.300;2023-03-01T17:51:57;5.60;99.90
19538;DHT22;9914;51.008;4.300;2023-03-01T17:54:23;5.60;99.90
19538;DHT22;9914;51.008;4.300;2023-03-01T17:56:50;5.60;99.90
19538;DHT22;9914;51.008;4.300;2023-03-01T17:59:16;5.60;99.90
19538;DHT22;9914;51.008;4.300;2023-03-01T18:01:44;5.60;99.90
19538;DHT22;9914;51.008;4.300;2023-03-01T18:04:10;5.50;99.90
19538;DHT22;9914;51.008;4.300;2023-03-01T18:06:36;5.60;99.90
19538;DHT22;9914;51.008;4.300;2023-03-01T18:09:02;5.60;99.90
19538;DHT22;9914;51.008;4.300;2023-03-01T18:11:28;5.60;99.90